createdAt,value
2019-02-22T00:01:14.930Z,22.97
2019-02-22T00:03:43.821Z,26.70
2019-02-22T00:06:12.422Z,27.50
2019-02-22T00:08:41.006Z,30.63
2019-02-22T00:11:09.807Z,21.27
2019-02-22T00:13:38.342Z,20.40
2019-02-22T00:16:06.978Z,26.23
2019-02-22T00:18:35.722Z,23.57
2019-02-22T00:21:04.448Z,20.20
2019-02-22T00:23:33.131Z,23.10
2019-02-22T00:26:01.691Z,25.03
2019-02-22T00:28:30.378Z,25.37
2019-02-22T00:30:59.178Z,23.13
2019-02-22T00:33:27.740Z,26.33
2019-02-22T00:35:56.417Z,25.37
2019-02-22T00:38:27.064Z,29.93
2019-02-22T00:40:55.208Z,25.63
2019-02-22T00:43:23.846Z,24.97
2019-02-22T00:45:52.418Z,30.70
2019-02-22T00:48:21.896Z,28.03
2019-02-22T00:50:50.620Z,26.57
2019-02-22T00:53:19.402Z,32.73
2019-02-22T00:55:48.038Z,29.27
2019-02-22T00:58:16.694Z,31.07
2019-02-22T01:00:45.389Z,31.50
2019-02-22T01:03:14.014Z,35.03
2019-02-22T01:05:42.644Z,31.97
2019-02-22T01:08:11.176Z,32.20
2019-02-22T01:10:39.750Z,30.60
2019-02-22T01:13:08.786Z,34.13
2019-02-22T01:15:37.289Z,29.93
2019-02-22T01:18:05.966Z,30.30
2019-02-22T01:20:34.700Z,32.67
2019-02-22T01:23:03.317Z,34.27
2019-02-22T01:25:31.869Z,28.77
2019-02-22T01:28:00.340Z,32.93
2019-02-22T01:30:28.989Z,29.00
2019-02-22T01:32:57.612Z,32.03
2019-02-22T01:35:26.240Z,33.33
2019-02-22T01:37:54.779Z,31.57
2019-02-22T01:40:23.345Z,32.27
2019-02-22T01:42:52.697Z,26.80
2019-02-22T01:45:21.261Z,32.07
2019-02-22T01:47:49.830Z,27.40
2019-02-22T01:50:23.032Z,28.40
2019-02-22T01:52:51.748Z,29.47
2019-02-22T01:55:20.557Z,29.53
2019-02-22T01:57:49.213Z,31.50
2019-02-22T02:00:17.789Z,27.90
2019-02-22T02:02:46.344Z,28.97
2019-02-22T02:05:14.960Z,29.10
2019-02-22T02:07:43.661Z,31.83
2019-02-22T02:10:12.265Z,28.27
2019-02-22T02:12:40.829Z,24.43
2019-02-22T02:15:09.381Z,27.87
2019-02-22T02:17:38.001Z,28.97
2019-02-22T02:20:07.702Z,27.50
2019-02-22T02:22:36.370Z,29.37
2019-02-22T02:25:07.054Z,28.43
2019-02-22T02:27:35.586Z,32.70
2019-02-22T02:30:06.507Z,27.73
2019-02-22T02:32:35.024Z,29.77
2019-02-22T02:35:03.736Z,32.07
2019-02-22T02:37:32.348Z,28.00
2019-02-22T02:40:03.870Z,29.27
2019-02-22T02:42:32.551Z,30.97
2019-02-22T02:45:01.129Z,30.17
2019-02-22T02:47:29.753Z,31.10
2019-02-22T02:49:58.326Z,34.67
2019-02-22T02:52:26.881Z,35.63
2019-02-22T02:54:55.509Z,38.13
2019-02-22T02:57:24.068Z,34.40
2019-02-22T02:59:52.621Z,33.77
2019-02-22T03:02:22.898Z,37.00
2019-02-22T03:04:51.542Z,39.73
2019-02-22T03:07:39.721Z,37.90
2019-02-22T03:10:08.583Z,37.07
2019-02-22T03:12:37.268Z,41.93
2019-02-22T03:15:07.521Z,38.67
2019-02-22T03:17:36.207Z,37.80
2019-02-22T03:20:06.909Z,43.93
2019-02-22T03:22:35.523Z,43.30
2019-02-22T03:25:05.919Z,44.90
2019-02-22T03:27:34.493Z,45.93
2019-02-22T03:30:03.452Z,44.30
2019-02-22T03:32:32.031Z,47.70
2019-02-22T03:35:00.652Z,45.80
2019-02-22T03:37:29.313Z,47.97
2019-02-22T03:39:58.037Z,52.00
2019-02-22T03:42:26.744Z,50.20
2019-02-22T03:44:55.323Z,51.30
2019-02-22T03:47:23.880Z,52.80
2019-02-22T03:49:52.508Z,53.67
2019-02-22T03:52:28.658Z,51.57
2019-02-22T03:54:57.286Z,54.03
2019-02-22T03:57:25.893Z,46.77
2019-02-22T03:59:54.594Z,49.47
2019-02-22T04:02:23.274Z,47.27
2019-02-22T04:04:52.303Z,48.67
2019-02-22T04:07:20.864Z,47.93
2019-02-22T04:09:49.553Z,43.70
2019-02-22T04:12:18.164Z,48.20
2019-02-22T04:14:46.856Z,49.27
2019-02-22T04:17:15.425Z,49.60
2019-02-22T04:19:44.031Z,45.97
2019-02-22T04:22:12.584Z,49.30
2019-02-22T04:24:41.233Z,45.63
2019-02-22T04:27:09.920Z,50.80
2019-02-22T04:29:39.835Z,47.57
2019-02-22T04:32:08.490Z,49.40
2019-02-22T04:34:37.066Z,49.30
2019-02-22T04:37:05.693Z,52.00
2019-02-22T04:39:34.338Z,46.10
2019-02-22T04:42:03.039Z,53.00
2019-02-22T04:44:31.593Z,48.20
2019-02-22T04:47:00.213Z,50.27
2019-02-22T04:49:28.835Z,48.60
2019-02-22T04:51:57.533Z,45.40
2019-02-22T04:54:26.287Z,49.13
2019-02-22T04:56:54.889Z,49.87
2019-02-22T04:59:23.495Z,50.07
2019-02-22T05:01:53.265Z,56.87
2019-02-22T05:04:21.910Z,51.90
2019-02-22T05:06:50.583Z,50.73
2019-02-22T05:09:19.271Z,54.07
2019-02-22T05:11:47.889Z,54.07
2019-02-22T05:14:16.641Z,50.20
2019-02-22T05:16:45.280Z,52.53
2019-02-22T05:19:14.195Z,52.07
2019-02-22T05:21:42.883Z,55.30
2019-02-22T05:24:11.489Z,58.53
2019-02-22T05:26:40.078Z,55.67
2019-02-22T05:29:08.687Z,56.47
2019-02-22T05:31:37.231Z,49.03
2019-02-22T05:34:06.057Z,55.80
2019-02-22T05:36:35.034Z,53.83
2019-02-22T05:39:04.713Z,55.03
2019-02-22T05:41:33.329Z,63.77
2019-02-22T05:44:02.038Z,55.63
2019-02-22T05:46:30.598Z,53.67
2019-02-22T05:48:59.526Z,50.13
2019-02-22T05:51:28.246Z,52.40
2019-02-22T05:53:56.969Z,53.17
2019-02-22T05:56:25.616Z,56.23
2019-02-22T05:58:54.150Z,52.20
2019-02-22T06:01:22.938Z,55.90
2019-02-22T06:03:51.613Z,52.73
2019-02-22T06:06:20.901Z,49.17
2019-02-22T06:08:49.579Z,55.23
2019-02-22T06:11:18.206Z,53.43
2019-02-22T06:13:46.809Z,63.93
2019-02-22T06:16:15.389Z,59.00
2019-02-22T06:18:44.001Z,54.87
2019-02-22T06:21:15.174Z,59.03
2019-02-22T06:23:42.905Z,58.67
2019-02-22T06:26:12.287Z,63.27
2019-02-22T06:28:40.979Z,67.83
2019-02-22T06:31:09.520Z,71.60
2019-02-22T06:33:38.289Z,73.70
2019-02-22T06:36:07.204Z,77.53
2019-02-22T06:38:35.774Z,68.07
2019-02-22T06:41:04.466Z,73.40
2019-02-22T06:43:33.127Z,71.43
2019-02-22T06:46:01.748Z,87.97
2019-02-22T06:48:30.649Z,71.63
2019-02-22T06:50:59.258Z,66.10
2019-02-22T06:53:27.931Z,74.73
2019-02-22T06:55:56.737Z,77.30
2019-02-22T06:58:25.393Z,75.37
2019-02-22T07:00:53.961Z,71.20
2019-02-22T07:03:22.667Z,74.07
2019-02-22T07:05:51.371Z,71.50
2019-02-22T07:08:19.922Z,84.63
2019-02-22T07:10:52.995Z,72.67
2019-02-22T07:13:24.298Z,73.43
2019-02-22T07:15:52.047Z,71.27
2019-02-22T07:18:20.670Z,74.80
2019-02-22T07:20:49.581Z,65.03
2019-02-22T07:23:18.275Z,73.10
2019-02-22T07:25:46.892Z,69.20
2019-02-22T07:28:15.611Z,70.57
2019-02-22T07:30:44.314Z,70.67
2019-02-22T07:33:12.926Z,68.47
2019-02-22T07:35:41.594Z,67.83
2019-02-22T07:38:11.818Z,68.40
2019-02-22T07:40:40.447Z,72.30
2019-02-22T07:43:09.174Z,72.17
2019-02-22T07:45:37.813Z,65.90
2019-02-22T07:48:06.563Z,60.80
2019-02-22T07:50:35.264Z,64.17
2019-02-22T07:53:03.942Z,66.03
2019-02-22T07:55:32.508Z,67.80
2019-02-22T07:58:01.275Z,65.27
2019-02-22T08:00:29.916Z,67.57
2019-02-22T08:02:58.550Z,67.70
2019-02-22T08:05:27.253Z,70.37
2019-02-22T08:07:55.886Z,68.13
2019-02-22T08:10:26.262Z,73.87
2019-02-22T08:12:55.178Z,74.30
2019-02-22T08:15:23.895Z,69.37
2019-02-22T08:17:52.477Z,71.93
2019-02-22T08:20:21.014Z,67.53
2019-02-22T08:22:49.626Z,72.20
2019-02-22T08:25:18.327Z,72.07
2019-02-22T08:27:53.866Z,68.40
2019-02-22T08:30:17.273Z,65.07
2019-02-22T08:32:45.918Z,65.87
2019-02-22T08:35:14.668Z,62.23
2019-02-22T08:37:43.333Z,66.50
2019-02-22T08:40:11.980Z,65.77
2019-02-22T08:42:40.868Z,66.27
2019-02-22T08:45:10.533Z,68.30
2019-02-22T08:47:39.142Z,65.70
2019-02-22T08:50:08.310Z,68.20
2019-02-22T08:52:36.920Z,68.20
2019-02-22T08:55:06.525Z,69.03
2019-02-22T08:57:35.304Z,63.50
2019-02-22T09:00:04.534Z,59.70
2019-02-22T09:02:33.076Z,64.43
2019-02-22T09:05:01.710Z,67.57
2019-02-22T09:07:30.422Z,59.27
2019-02-22T09:09:59.090Z,62.80
2019-02-22T09:12:27.603Z,56.40
2019-02-22T09:14:56.222Z,60.70
2019-02-22T09:17:24.873Z,56.70
2019-02-22T09:19:53.530Z,59.80
2019-02-22T09:22:23.271Z,61.43
2019-02-22T09:24:52.377Z,62.80
2019-02-22T09:27:21.030Z,58.87
2019-02-22T09:29:58.517Z,58.00
2019-02-22T09:32:19.977Z,58.33
2019-02-22T09:34:48.866Z,61.03
2019-02-22T09:37:17.470Z,64.30
2019-02-22T09:39:46.208Z,59.73
2019-02-22T09:42:14.807Z,62.47
2019-02-22T09:44:43.443Z,65.47
2019-02-22T09:47:12.065Z,60.80
2019-02-22T09:49:40.667Z,62.53
2019-02-22T09:52:09.334Z,58.63
2019-02-22T09:54:37.930Z,60.73
2019-02-22T09:57:07.536Z,60.10
2019-02-22T09:59:36.126Z,56.90
2019-02-22T10:02:04.816Z,60.73
2019-02-22T10:04:33.395Z,56.77
2019-02-22T10:07:02.026Z,54.50
2019-02-22T10:09:30.723Z,54.43
2019-02-22T10:11:59.257Z,57.03
2019-02-22T10:14:28.622Z,55.00
2019-02-22T10:16:57.310Z,50.30
2019-02-22T10:19:25.940Z,50.97
2019-02-22T10:21:54.505Z,51.17
2019-02-22T10:24:23.198Z,49.83
2019-02-22T10:26:52.064Z,48.50
2019-02-22T10:29:20.613Z,45.37
2019-02-22T10:31:49.421Z,49.03
2019-02-22T10:34:17.926Z,47.00
2019-02-22T10:36:46.546Z,46.30
2019-02-22T10:39:15.063Z,50.87
2019-02-22T10:41:43.723Z,49.40
2019-02-22T10:44:17.799Z,44.37
2019-02-22T10:46:42.691Z,42.57
2019-02-22T10:49:11.305Z,45.27
2019-02-22T10:51:39.894Z,48.23
2019-02-22T10:54:08.542Z,53.60
2019-02-22T10:56:39.184Z,49.40
2019-02-22T10:59:07.529Z,47.20
2019-02-22T11:01:36.098Z,46.57
2019-02-22T11:04:05.136Z,47.20
2019-02-22T11:06:33.877Z,43.20
2019-02-22T11:09:02.561Z,42.20
2019-02-22T11:11:31.216Z,46.93
2019-02-22T11:14:08.982Z,45.17
2019-02-22T11:16:37.622Z,41.77
2019-02-22T11:19:06.358Z,46.67
2019-02-22T11:21:34.985Z,46.40
2019-02-22T11:24:03.502Z,46.87
2019-02-22T11:26:32.138Z,47.13
2019-02-22T11:29:00.741Z,44.50
2019-02-22T11:31:29.283Z,43.67
2019-02-22T11:33:57.907Z,42.20
2019-02-22T11:36:26.583Z,39.03
2019-02-22T11:38:55.229Z,37.77
2019-02-22T11:41:23.813Z,33.00
2019-02-22T11:43:52.508Z,36.57
2019-02-22T11:46:21.212Z,37.77
2019-02-22T11:48:49.919Z,37.53
2019-02-22T11:51:18.493Z,35.20
2019-02-22T11:53:47.164Z,36.43
2019-02-22T11:56:15.750Z,33.90
2019-02-22T11:58:44.401Z,35.07
2019-02-22T12:01:13.085Z,33.30
2019-02-22T12:03:41.681Z,31.13
2019-02-22T12:06:10.334Z,31.10
2019-02-22T12:08:38.934Z,31.93
2019-02-22T12:11:07.550Z,30.03
2019-02-22T12:13:36.163Z,29.67
2019-02-22T12:16:04.899Z,28.97
2019-02-22T12:18:33.433Z,32.63
2019-02-22T12:21:02.186Z,32.20
2019-02-22T12:23:30.756Z,30.67
2019-02-22T12:25:59.317Z,30.07
2019-02-22T12:28:27.821Z,31.23
2019-02-22T12:30:56.553Z,28.80
2019-02-22T12:33:25.142Z,29.93
2019-02-22T12:35:53.685Z,26.53
2019-02-22T12:38:22.473Z,29.47
2019-02-22T12:40:51.095Z,28.63
2019-02-22T12:43:19.966Z,29.00
2019-02-22T12:45:48.581Z,27.47
2019-02-22T12:48:17.162Z,26.77
2019-02-22T12:50:45.847Z,25.00
2019-02-22T12:53:14.469Z,25.37
2019-02-22T12:55:43.166Z,26.97
2019-02-22T12:58:11.801Z,28.40
2019-02-22T13:00:40.421Z,26.30
2019-02-22T13:03:09.143Z,28.10
2019-02-22T13:05:37.756Z,25.87
2019-02-22T13:08:18.248Z,27.17
2019-02-22T13:10:46.837Z,28.07
2019-02-22T13:13:15.526Z,28.47
2019-02-22T13:15:44.162Z,24.33
2019-02-22T13:18:12.778Z,26.33
2019-02-22T13:20:41.384Z,23.17
2019-02-22T13:23:10.569Z,25.00
2019-02-22T13:25:39.157Z,23.97
2019-02-22T13:28:07.709Z,26.97
2019-02-22T13:30:36.554Z,30.00
2019-02-22T13:33:05.190Z,22.73
2019-02-22T13:35:33.792Z,23.97
2019-02-22T13:38:02.435Z,19.53
2019-02-22T13:40:31.306Z,22.53
2019-02-22T13:42:59.987Z,22.47
2019-02-22T13:45:31.846Z,22.67
2019-02-22T13:48:00.573Z,21.83
2019-02-22T13:50:29.177Z,22.70
2019-02-22T13:52:58.046Z,21.60
2019-02-22T13:55:26.991Z,20.33
2019-02-22T13:57:55.649Z,21.77
2019-02-22T14:00:24.663Z,19.10
2019-02-22T14:02:53.630Z,19.33
2019-02-22T14:05:22.587Z,17.67
2019-02-22T14:07:58.981Z,19.73
2019-02-22T14:10:27.596Z,21.17
2019-02-22T14:12:57.981Z,18.13
2019-02-22T14:15:37.956Z,22.23
2019-02-22T14:18:01.481Z,17.23
2019-02-22T14:20:32.505Z,19.80
2019-02-22T14:23:03.487Z,21.33
2019-02-22T14:25:31.548Z,21.77
2019-02-22T14:28:00.182Z,18.07
2019-02-22T14:30:30.203Z,23.37
2019-02-22T14:32:58.874Z,18.77
2019-02-22T14:35:27.458Z,19.07
2019-02-22T14:38:01.082Z,20.73
2019-02-22T14:40:29.632Z,19.57
2019-02-22T14:42:58.253Z,22.10
2019-02-22T14:45:26.876Z,22.50
2019-02-22T14:47:55.374Z,20.13
2019-02-22T14:50:24.083Z,22.13
2019-02-22T14:52:52.637Z,17.27
2019-02-22T14:55:21.265Z,18.53
2019-02-22T14:57:49.816Z,19.20
2019-02-22T15:00:20.601Z,17.43
2019-02-22T15:02:49.339Z,19.17
2019-02-22T15:05:18.041Z,17.17
2019-02-22T15:07:46.676Z,19.13
2019-02-22T15:10:15.334Z,18.23
2019-02-22T15:12:43.873Z,15.73
2019-02-22T15:15:17.235Z,17.87
2019-02-22T15:17:59.260Z,20.07
2019-02-22T15:20:27.948Z,16.97
2019-02-22T15:22:56.555Z,19.73
2019-02-22T15:25:25.205Z,20.63
2019-02-22T15:27:53.824Z,20.50
2019-02-22T15:30:22.393Z,18.53
2019-02-22T15:32:51.027Z,18.27
2019-02-22T15:35:19.503Z,15.87
2019-02-22T15:37:48.264Z,14.90
2019-02-22T15:40:16.808Z,16.63
2019-02-22T15:42:45.484Z,15.30
2019-02-22T15:45:20.121Z,15.63
2019-02-22T15:47:49.171Z,16.53
2019-02-22T15:50:19.269Z,13.70
2019-02-22T15:52:49.449Z,16.63
2019-02-22T15:55:18.139Z,16.70
2019-02-22T15:57:46.861Z,13.43
2019-02-22T16:00:24.101Z,14.17
2019-02-22T16:02:52.930Z,18.43
2019-02-22T16:05:23.285Z,17.10
2019-02-22T16:07:52.016Z,14.90
2019-02-22T16:10:20.755Z,10.43
2019-02-22T16:12:49.469Z,10.20
2019-02-22T16:15:18.257Z,8.47
2019-02-22T16:17:46.867Z,7.90
2019-02-22T16:20:15.520Z,10.33
2019-02-22T16:22:44.180Z,9.40
2019-02-22T16:25:19.749Z,7.77
2019-02-22T16:27:43.183Z,8.50
2019-02-22T16:30:15.893Z,8.37
2019-02-22T16:32:44.523Z,6.53
2019-02-22T16:35:13.392Z,10.63
2019-02-22T16:37:41.944Z,10.37
2019-02-22T16:40:11.660Z,6.73
2019-02-22T16:42:40.220Z,7.80
2019-02-22T16:45:10.933Z,8.40
2019-02-22T16:47:40.525Z,10.70
2019-02-22T16:50:14.029Z,8.33
2019-02-22T16:52:45.139Z,11.00
2019-02-22T16:55:16.538Z,8.90
2019-02-22T16:57:45.277Z,8.40
2019-02-22T17:00:15.841Z,8.20
2019-02-22T17:02:44.540Z,12.43
2019-02-22T17:05:15.351Z,11.73
2019-02-22T17:07:44.157Z,11.43
2019-02-22T17:10:13.010Z,10.93
2019-02-22T17:12:41.674Z,11.83
2019-02-22T17:15:11.845Z,10.30
2019-02-22T17:17:40.517Z,9.70
2019-02-22T17:20:11.759Z,10.53
2019-02-22T17:22:40.521Z,11.63
2019-02-22T17:25:14.701Z,12.50
2019-02-22T17:27:43.262Z,12.67
2019-02-22T17:30:14.791Z,11.30
2019-02-22T17:32:43.393Z,11.03
2019-02-22T17:35:12.131Z,13.87
2019-02-22T17:37:40.790Z,15.90
2019-02-22T17:40:20.182Z,14.67
2019-02-22T17:42:48.711Z,12.83
2019-02-22T17:45:17.378Z,13.57
2019-02-22T17:47:46.126Z,14.93
2019-02-22T17:50:14.869Z,14.53
2019-02-22T17:52:43.441Z,16.50
2019-02-22T17:55:12.129Z,18.37
2019-02-22T17:57:40.701Z,14.90
2019-02-22T18:00:14.024Z,15.10
2019-02-22T18:02:42.811Z,17.53
2019-02-22T18:05:11.548Z,16.00
2019-02-22T18:07:40.164Z,19.00
2019-02-22T18:10:10.143Z,15.10
2019-02-22T18:12:38.730Z,16.47
2019-02-22T18:15:17.454Z,17.73
2019-02-22T18:17:48.700Z,16.20
2019-02-22T18:20:17.384Z,14.97
2019-02-22T18:22:46.024Z,15.20
2019-02-22T18:25:14.755Z,13.33
2019-02-22T18:27:43.468Z,15.13
2019-02-22T18:30:17.632Z,16.00
2019-02-22T18:32:46.294Z,15.10
2019-02-22T18:35:15.073Z,14.47
2019-02-22T18:37:44.584Z,16.90
2019-02-22T18:40:18.804Z,14.83
2019-02-22T18:42:47.521Z,13.87
2019-02-22T18:45:16.310Z,11.77
2019-02-22T18:47:45.134Z,15.73
2019-02-22T18:50:13.879Z,11.73
2019-02-22T18:52:42.474Z,10.90
2019-02-22T18:55:11.246Z,9.17
2019-02-22T18:57:39.787Z,11.53
2019-02-22T19:00:11.598Z,9.47
2019-02-22T19:02:40.093Z,10.30
2019-02-22T19:05:09.500Z,9.77
2019-02-22T19:07:38.041Z,10.50
2019-02-22T19:10:11.790Z,9.70
2019-02-22T19:12:40.394Z,10.00
2019-02-22T19:15:13.990Z,9.80
2019-02-22T19:17:42.681Z,9.13
2019-02-22T19:20:13.833Z,9.47
2019-02-22T19:22:51.343Z,8.10
2019-02-22T19:25:21.875Z,7.90
2019-02-22T19:27:57.175Z,7.20
2019-02-22T19:30:29.166Z,6.53
2019-02-22T19:32:58.340Z,9.77
2019-02-22T19:35:27.543Z,6.43
2019-02-22T19:38:00.190Z,8.77
2019-02-22T19:40:30.304Z,7.33
2019-02-22T19:43:02.093Z,7.87
2019-02-22T19:45:33.412Z,6.97
2019-02-22T19:48:27.137Z,11.40
2019-02-22T19:50:43.588Z,6.73
2019-02-22T19:53:12.557Z,5.77
2019-02-22T19:55:44.415Z,6.00
2019-02-22T19:58:16.193Z,5.37
2019-02-22T20:00:46.358Z,6.07
2019-02-22T20:03:16.918Z,7.03
2019-02-22T20:05:45.890Z,6.37
2019-02-22T20:08:17.844Z,6.63
2019-02-22T20:10:54.045Z,7.57
2019-02-22T20:13:32.729Z,8.33
2019-02-22T20:16:02.769Z,8.60
2019-02-22T20:18:31.810Z,9.10
2019-02-22T20:21:00.789Z,8.87
2019-02-22T20:23:29.745Z,9.23
2019-02-22T20:26:00.722Z,10.73
2019-02-22T20:28:30.391Z,9.93
2019-02-22T20:31:00.219Z,9.97
2019-02-22T20:33:29.413Z,10.70
2019-02-22T20:35:58.762Z,9.73
2019-02-22T20:38:34.017Z,10.37
2019-02-22T20:41:04.209Z,9.53
2019-02-22T20:43:33.264Z,11.03
2019-02-22T20:46:04.485Z,11.03
2019-02-22T20:48:36.062Z,11.07
2019-02-22T20:51:05.784Z,10.93
2019-02-22T20:53:39.974Z,10.50
2019-02-22T20:56:11.305Z,10.70
2019-02-22T20:58:43.394Z,11.40
2019-02-22T21:01:24.462Z,12.40
2019-02-22T21:03:54.135Z,11.90
2019-02-22T21:06:22.699Z,11.63
2019-02-22T21:08:51.380Z,12.00
2019-02-22T21:11:20.071Z,12.80
2019-02-22T21:13:48.735Z,12.20
2019-02-22T21:16:17.370Z,12.33
2019-02-22T21:18:46.366Z,12.90
2019-02-22T21:21:14.900Z,12.07
2019-02-22T21:23:43.434Z,13.07
2019-02-22T21:26:12.119Z,12.07
2019-02-22T21:28:40.770Z,12.10
2019-02-22T21:31:09.768Z,12.23
2019-02-22T21:33:38.374Z,13.00
2019-02-22T21:36:06.970Z,12.33
2019-02-22T21:38:35.595Z,12.87
2019-02-22T21:41:04.285Z,12.90
2019-02-22T21:43:32.897Z,11.50
2019-02-22T21:46:01.379Z,12.13
2019-02-22T21:48:30.002Z,10.73
2019-02-22T21:50:58.692Z,10.87
2019-02-22T21:53:27.334Z,12.50
2019-02-22T21:55:55.874Z,10.67
2019-02-22T21:58:24.449Z,10.23
2019-02-22T22:00:52.980Z,10.07
2019-02-22T22:03:21.533Z,11.90
2019-02-22T22:05:50.143Z,10.60
2019-02-22T22:08:18.777Z,11.23
2019-02-22T22:10:47.437Z,10.30
2019-02-22T22:13:16.042Z,12.17
2019-02-22T22:15:44.600Z,11.47
2019-02-22T22:18:13.412Z,11.73
2019-02-22T22:20:41.962Z,11.90
2019-02-22T22:23:10.625Z,11.47
2019-02-22T22:25:39.218Z,12.90
2019-02-22T22:28:07.720Z,12.00
2019-02-22T22:30:36.293Z,12.37
2019-02-22T22:33:05.018Z,12.37
2019-02-22T22:35:33.581Z,12.40
2019-02-22T22:38:02.143Z,12.70
2019-02-22T22:40:30.911Z,12.07
2019-02-22T22:42:59.529Z,12.07
2019-02-22T22:45:28.310Z,11.73
2019-02-22T22:47:56.866Z,12.27
2019-02-22T22:50:25.429Z,11.63
2019-02-22T22:52:53.986Z,11.00
2019-02-22T22:55:22.521Z,11.73
2019-02-22T22:57:51.128Z,12.47
2019-02-22T23:00:51.064Z,11.47
2019-02-22T23:03:20.258Z,12.13
2019-02-22T23:05:49.021Z,12.27
2019-02-22T23:08:17.743Z,12.30
2019-02-22T23:10:46.527Z,12.63
2019-02-22T23:13:15.242Z,12.50
2019-02-22T23:15:43.941Z,13.03
2019-02-22T23:18:12.589Z,12.27
2019-02-22T23:20:41.142Z,12.53
2019-02-22T23:23:09.906Z,12.27
2019-02-22T23:25:38.486Z,11.83
2019-02-22T23:28:07.123Z,13.63
2019-02-22T23:30:35.663Z,15.30
2019-02-22T23:33:04.289Z,12.37
2019-02-22T23:35:32.920Z,13.17
2019-02-22T23:38:01.510Z,12.60
2019-02-22T23:40:30.192Z,14.00
2019-02-22T23:42:58.866Z,12.80
2019-02-22T23:45:27.437Z,14.57
2019-02-22T23:47:55.990Z,13.77
2019-02-22T23:50:24.618Z,13.80
2019-02-22T23:52:53.237Z,13.93
2019-02-22T23:55:22.078Z,14.17
2019-02-22T23:57:50.818Z,14.50
